createdAt,value
2022-12-29T00:02:20.881Z,6.88
2022-12-29T00:04:47.864Z,6.84
2022-12-29T00:07:14.340Z,6.71
2022-12-29T00:09:40.807Z,6.49
2022-12-29T00:12:07.626Z,6.26
2022-12-29T00:14:52.807Z,6.19
2022-12-29T00:17:19.415Z,6.19
2022-12-29T00:20:04.644Z,6.18
2022-12-29T00:22:49.606Z,6.21
2022-12-29T00:25:34.894Z,6.15
2022-12-29T00:28:19.986Z,6.12
2022-12-29T00:31:05.138Z,6.07
2022-12-29T00:33:52.769Z,6.06
2022-12-29T00:36:32.594Z,5.99
2022-12-29T00:39:27.114Z,5.97
2022-12-29T00:42:12.444Z,5.94
2022-12-29T00:44:39.011Z,5.89
2022-12-29T00:47:05.659Z,5.88
2022-12-29T00:49:33.808Z,5.84
2022-12-29T00:52:09.070Z,5.80
2022-12-29T00:54:38.605Z,5.80
2022-12-29T00:57:07.611Z,5.75
2022-12-29T00:59:36.354Z,5.75
2022-12-29T01:02:03.090Z,5.72
2022-12-29T01:04:29.750Z,5.70
2022-12-29T01:06:56.288Z,5.71
2022-12-29T01:09:41.622Z,5.70
2022-12-29T01:12:09.220Z,5.71
2022-12-29T01:14:36.459Z,5.75
2022-12-29T01:17:02.945Z,5.72
2022-12-29T01:19:29.598Z,5.72
2022-12-29T01:21:56.088Z,5.73
2022-12-29T01:24:23.196Z,5.80
2022-12-29T01:26:50.357Z,5.81
2022-12-29T01:29:17.500Z,5.81
2022-12-29T01:31:44.967Z,5.84
2022-12-29T01:34:11.791Z,5.84
2022-12-29T01:36:38.375Z,5.93
2022-12-29T01:39:04.990Z,5.96
2022-12-29T01:41:32.525Z,5.94
2022-12-29T01:44:02.135Z,5.91
2022-12-29T01:46:40.060Z,5.88
2022-12-29T01:49:09.361Z,5.87
2022-12-29T01:51:51.920Z,5.94
2022-12-29T01:54:31.879Z,5.99
2022-12-29T01:57:02.620Z,6.10
2022-12-29T01:59:32.575Z,6.14
2022-12-29T02:01:59.791Z,6.27
2022-12-29T02:04:27.858Z,6.33
2022-12-29T02:07:00.628Z,6.41
2022-12-29T02:09:27.492Z,6.52
2022-12-29T02:11:54.992Z,6.54
2022-12-29T02:14:21.493Z,6.52
2022-12-29T02:16:59.922Z,6.54
2022-12-29T02:19:44.344Z,6.55
2022-12-29T02:22:24.085Z,6.59
2022-12-29T02:25:15.348Z,6.60
2022-12-29T02:28:14.047Z,6.54
2022-12-29T02:31:00.159Z,6.51
2022-12-29T02:33:56.034Z,6.51
2022-12-29T02:36:48.340Z,6.49
2022-12-29T02:39:24.412Z,6.44
2022-12-29T02:42:03.516Z,6.46
2022-12-29T02:44:51.499Z,6.41
2022-12-29T02:47:37.891Z,6.39
2022-12-29T02:50:19.422Z,6.36
2022-12-29T02:52:58.338Z,6.34
2022-12-29T02:55:24.898Z,6.33
2022-12-29T02:58:15.714Z,6.19
2022-12-29T03:01:21.188Z,6.07
2022-12-29T03:04:20.129Z,6.00
2022-12-29T03:07:20.760Z,5.97
2022-12-29T03:10:19.482Z,5.93
2022-12-29T03:13:26.258Z,5.91
2022-12-29T03:16:21.070Z,5.96
2022-12-29T03:19:11.557Z,5.99
2022-12-29T03:22:01.458Z,6.02
2022-12-29T03:24:31.108Z,6.11
2022-12-29T03:27:00.699Z,6.21
2022-12-29T03:29:32.048Z,6.26
2022-12-29T03:32:00.643Z,6.25
2022-12-29T03:34:29.057Z,6.18
2022-12-29T03:37:02.384Z,6.04
2022-12-29T03:39:29.775Z,5.87
2022-12-29T03:42:02.412Z,5.71
2022-12-29T03:44:34.364Z,5.56
2022-12-29T03:47:00.890Z,5.49
2022-12-29T03:49:27.402Z,5.51
2022-12-29T03:51:53.950Z,5.46
2022-12-29T03:54:20.682Z,5.43
2022-12-29T03:56:47.205Z,5.49
2022-12-29T03:59:13.940Z,5.53
2022-12-29T04:01:41.362Z,5.57
2022-12-29T04:04:08.035Z,5.60
2022-12-29T04:06:34.611Z,5.57
2022-12-29T04:09:01.211Z,5.56
2022-12-29T04:11:32.897Z,5.58
2022-12-29T04:13:59.884Z,5.65
2022-12-29T04:16:26.434Z,5.68
2022-12-29T04:18:52.983Z,5.69
2022-12-29T04:21:19.501Z,5.71
2022-12-29T04:23:46.071Z,5.77
2022-12-29T04:26:13.207Z,5.82
2022-12-29T04:28:40.010Z,5.83
2022-12-29T04:31:06.683Z,5.88
2022-12-29T04:33:34.071Z,5.97
2022-12-29T04:36:00.655Z,6.04
2022-12-29T04:38:27.172Z,6.09
2022-12-29T04:40:53.775Z,6.14
2022-12-29T04:43:20.518Z,6.16
2022-12-29T04:45:48.757Z,6.22
2022-12-29T04:48:15.930Z,6.27
2022-12-29T04:50:42.960Z,6.31
2022-12-29T04:53:09.654Z,6.37
2022-12-29T04:55:36.240Z,6.44
2022-12-29T04:58:02.721Z,6.50
2022-12-29T05:00:29.298Z,6.51
2022-12-29T05:02:55.983Z,6.51
2022-12-29T05:05:22.636Z,6.48
2022-12-29T05:07:49.205Z,6.44
2022-12-29T05:10:15.736Z,6.40
2022-12-29T05:12:42.318Z,6.37
2022-12-29T05:15:10.454Z,6.33
2022-12-29T05:17:37.248Z,6.34
2022-12-29T05:20:06.053Z,6.31
2022-12-29T05:22:32.549Z,6.27
2022-12-29T05:24:59.578Z,6.27
2022-12-29T05:27:26.165Z,6.26
2022-12-29T05:29:52.662Z,6.25
2022-12-29T05:32:19.196Z,6.23
2022-12-29T05:34:45.696Z,6.18
2022-12-29T05:37:12.297Z,6.16
2022-12-29T05:39:38.803Z,6.15
2022-12-29T05:42:05.331Z,6.13
2022-12-29T05:44:31.877Z,6.13
2022-12-29T05:46:58.454Z,6.14
2022-12-29T05:49:25.046Z,6.18
2022-12-29T05:51:51.564Z,6.15
2022-12-29T05:54:18.046Z,6.19
2022-12-29T05:56:45.133Z,6.28
2022-12-29T05:59:11.708Z,6.33
2022-12-29T06:01:38.400Z,6.37
2022-12-29T06:04:05.042Z,6.44
2022-12-29T06:06:31.539Z,6.48
2022-12-29T06:08:58.074Z,6.55
2022-12-29T06:11:24.626Z,6.59
2022-12-29T06:13:51.160Z,6.61
2022-12-29T06:16:17.839Z,6.67
2022-12-29T06:18:44.468Z,6.70
2022-12-29T06:21:10.958Z,6.67
2022-12-29T06:23:37.513Z,6.71
2022-12-29T06:26:04.107Z,6.70
2022-12-29T06:28:30.588Z,6.72
2022-12-29T06:30:57.159Z,6.76
2022-12-29T06:33:23.874Z,6.77
2022-12-29T06:35:50.644Z,6.78
2022-12-29T06:38:17.185Z,6.83
2022-12-29T06:40:46.164Z,6.86
2022-12-29T06:43:13.002Z,6.89
2022-12-29T06:45:41.343Z,6.89
2022-12-29T06:48:08.628Z,6.89
2022-12-29T06:50:35.435Z,6.92
2022-12-29T06:53:01.960Z,6.95
2022-12-29T06:55:29.286Z,6.97
2022-12-29T06:57:59.745Z,6.97
2022-12-29T07:00:26.503Z,7.02
2022-12-29T07:02:53.445Z,7.09
2022-12-29T07:05:20.146Z,7.14
2022-12-29T07:07:46.957Z,7.24
2022-12-29T07:10:13.583Z,7.29
2022-12-29T07:12:40.110Z,7.38
2022-12-29T07:15:07.153Z,7.44
2022-12-29T07:17:33.735Z,7.45
2022-12-29T07:20:00.508Z,7.54
2022-12-29T07:22:27.063Z,7.57
2022-12-29T07:31:31.649Z,7.84
2022-12-29T07:33:58.214Z,7.84
2022-12-29T07:36:28.004Z,7.86
2022-12-29T07:38:57.360Z,7.87
2022-12-29T07:41:24.046Z,7.89
2022-12-29T07:43:50.600Z,7.87
2022-12-29T07:46:55.434Z,7.90
2022-12-29T07:49:03.576Z,7.91
2022-12-29T07:51:30.072Z,7.97
2022-12-29T07:53:56.599Z,7.96
2022-12-29T07:56:23.121Z,8.07
2022-12-29T07:58:50.237Z,8.23
2022-12-29T08:01:17.206Z,8.31
2022-12-29T08:03:43.905Z,8.42
2022-12-29T08:06:11.812Z,8.48
2022-12-29T08:08:39.151Z,8.62
2022-12-29T08:11:05.615Z,8.67
2022-12-29T08:13:32.113Z,8.76
2022-12-29T08:16:00.041Z,8.87
2022-12-29T08:18:26.692Z,8.86
2022-12-29T08:20:55.861Z,8.91
2022-12-29T08:23:22.639Z,8.95
2022-12-29T08:25:58.908Z,9.01
2022-12-29T08:28:25.446Z,9.01
2022-12-29T08:30:52.047Z,9.03
2022-12-29T08:33:18.701Z,9.04
2022-12-29T08:35:46.008Z,9.13
2022-12-29T08:38:12.675Z,9.09
2022-12-29T08:40:39.152Z,9.11
2022-12-29T08:43:06.342Z,9.04
2022-12-29T08:45:33.441Z,9.05
2022-12-29T08:47:59.934Z,8.97
2022-12-29T08:50:26.460Z,8.90
2022-12-29T08:52:52.979Z,8.79
2022-12-29T08:55:19.679Z,8.72
2022-12-29T08:57:46.324Z,8.57
2022-12-29T09:00:13.225Z,8.42
2022-12-29T09:02:40.007Z,8.35
2022-12-29T09:05:07.203Z,8.37
2022-12-29T09:07:33.838Z,8.38
2022-12-29T09:10:00.346Z,8.29
2022-12-29T09:12:30.212Z,8.33
2022-12-29T09:14:59.714Z,8.35
2022-12-29T09:17:44.591Z,8.41
2022-12-29T09:20:16.877Z,8.40
2022-12-29T09:22:44.580Z,8.28
2022-12-29T09:25:12.185Z,8.25
2022-12-29T09:27:39.401Z,8.40
2022-12-29T09:30:08.787Z,8.52
2022-12-29T09:32:40.424Z,8.67
2022-12-29T09:35:10.336Z,8.72
2022-12-29T09:37:37.255Z,8.85
2022-12-29T09:40:05.221Z,8.96
2022-12-29T09:42:50.695Z,9.04
2022-12-29T09:45:30.294Z,9.09
2022-12-29T09:47:56.929Z,9.15
2022-12-29T09:50:31.446Z,9.08
2022-12-29T09:53:18.586Z,9.06
2022-12-29T09:55:55.215Z,9.15
2022-12-29T09:58:36.193Z,9.19
2022-12-29T10:01:27.434Z,9.28
2022-12-29T10:03:57.709Z,9.35
2022-12-29T10:06:56.206Z,9.37
2022-12-29T10:09:31.001Z,9.42
2022-12-29T10:12:00.584Z,9.48
2022-12-29T10:14:45.470Z,9.49
2022-12-29T10:17:23.841Z,9.51
2022-12-29T10:20:27.509Z,9.61
2022-12-29T10:23:21.682Z,9.77
2022-12-29T10:25:48.704Z,9.84
2022-12-29T10:28:44.518Z,9.92
2022-12-29T10:31:21.076Z,9.95
2022-12-29T10:33:51.357Z,9.82
2022-12-29T10:36:49.241Z,9.88
2022-12-29T10:39:24.546Z,9.94
2022-12-29T10:41:58.610Z,9.97
2022-12-29T10:44:33.667Z,10.07
2022-12-29T10:47:05.813Z,10.09
2022-12-29T10:49:38.179Z,10.08
2022-12-29T10:52:05.418Z,10.09
2022-12-29T10:54:46.998Z,10.14
2022-12-29T10:57:18.593Z,10.20
2022-12-29T10:59:45.164Z,10.22
2022-12-29T11:02:19.235Z,10.29
2022-12-29T11:05:15.927Z,10.40
2022-12-29T11:07:42.924Z,10.43
2022-12-29T11:10:22.086Z,10.49
2022-12-29T11:13:04.386Z,10.54
2022-12-29T11:15:42.318Z,10.65
2022-12-29T11:18:26.759Z,10.73
2022-12-29T11:21:01.755Z,10.94
2022-12-29T11:23:40.496Z,10.93
2022-12-29T11:26:23.954Z,10.88
2022-12-29T11:29:17.609Z,10.82
2022-12-29T11:31:50.906Z,10.84
2022-12-29T11:34:26.191Z,10.77
2022-12-29T11:37:01.085Z,10.78
2022-12-29T11:39:34.027Z,10.79
2022-12-29T11:42:03.568Z,10.78
2022-12-29T11:44:38.121Z,10.78
2022-12-29T11:47:06.489Z,10.76
2022-12-29T11:49:33.283Z,10.64
2022-12-29T11:52:01.227Z,10.55
2022-12-29T11:54:38.250Z,10.51
2022-12-29T11:57:14.394Z,10.48
2022-12-29T11:59:43.592Z,10.50
2022-12-29T12:02:45.851Z,10.43
2022-12-29T12:05:21.131Z,10.34
2022-12-29T12:07:55.409Z,10.54
2022-12-29T12:10:32.972Z,10.58
2022-12-29T12:13:05.034Z,10.45
2022-12-29T12:15:45.377Z,10.46
2022-12-29T12:18:26.617Z,10.40
2022-12-29T12:20:58.005Z,10.33
2022-12-29T12:24:14.545Z,10.32
2022-12-29T12:26:55.469Z,10.24
2022-12-29T12:29:30.079Z,10.16
2022-12-29T12:32:00.706Z,10.12
2022-12-29T12:34:37.292Z,10.13
2022-12-29T12:37:12.009Z,10.08
2022-12-29T12:39:50.756Z,10.07
2022-12-29T12:42:23.166Z,10.09
2022-12-29T12:45:26.174Z,10.04
2022-12-29T12:48:11.792Z,10.09
2022-12-29T12:50:50.505Z,10.07
2022-12-29T12:53:20.014Z,10.07
2022-12-29T12:56:02.329Z,10.06
2022-12-29T12:58:44.423Z,10.07
2022-12-29T13:02:08.584Z,10.08
2022-12-29T13:05:03.467Z,10.12
2022-12-29T13:07:54.594Z,10.15
2022-12-29T13:10:42.031Z,10.11
2022-12-29T13:13:38.932Z,10.06
2022-12-29T13:16:23.986Z,10.01
2022-12-29T13:18:57.377Z,10.02
2022-12-29T13:21:35.639Z,10.04
2022-12-29T13:24:21.182Z,10.06
2022-12-29T13:26:56.181Z,10.07
2022-12-29T13:29:42.965Z,10.12
2022-12-29T13:32:18.662Z,10.16
2022-12-29T13:34:54.499Z,10.24
2022-12-29T13:37:26.902Z,10.24
2022-12-29T13:40:00.640Z,10.23
2022-12-29T13:42:28.424Z,10.26
2022-12-29T13:45:06.213Z,10.26
2022-12-29T13:47:39.564Z,10.34
2022-12-29T13:50:13.440Z,10.36
2022-12-29T13:52:49.026Z,10.43
2022-12-29T13:55:31.298Z,10.41
2022-12-29T13:58:04.114Z,10.46
2022-12-29T14:00:41.499Z,10.45
2022-12-29T14:03:45.426Z,10.32
2022-12-29T14:06:25.519Z,10.32
2022-12-29T14:08:57.014Z,10.30
2022-12-29T14:11:32.354Z,10.23
2022-12-29T14:14:00.652Z,10.12
2022-12-29T14:16:31.447Z,10.05
2022-12-29T14:19:10.699Z,10.09
2022-12-29T14:21:38.540Z,10.11
2022-12-29T14:24:29.107Z,10.09
2022-12-29T14:26:55.625Z,10.15
2022-12-29T14:29:25.163Z,10.13
2022-12-29T14:31:54.037Z,10.08
2022-12-29T14:34:20.700Z,10.00
2022-12-29T14:36:54.195Z,9.99
2022-12-29T14:39:39.428Z,9.95
2022-12-29T14:42:11.763Z,9.86
2022-12-29T14:44:57.788Z,9.80
2022-12-29T14:47:39.862Z,9.71
2022-12-29T14:50:13.425Z,9.63
2022-12-29T14:53:00.104Z,9.28
2022-12-29T14:55:58.901Z,9.10
2022-12-29T14:58:39.615Z,8.95
2022-12-29T15:01:19.884Z,8.76
2022-12-29T15:03:52.572Z,8.63
2022-12-29T15:06:23.310Z,8.53
2022-12-29T15:09:01.500Z,8.42
2022-12-29T15:11:37.043Z,8.38
2022-12-29T15:14:05.238Z,8.33
2022-12-29T15:16:38.031Z,8.34
2022-12-29T15:19:06.254Z,8.34
2022-12-29T15:21:37.250Z,8.39
2022-12-29T15:24:05.118Z,8.40
2022-12-29T15:26:50.077Z,8.35
2022-12-29T15:29:39.655Z,8.33
2022-12-29T15:32:25.590Z,8.34
2022-12-29T15:34:57.831Z,8.28
2022-12-29T15:37:27.887Z,8.25
2022-12-29T15:39:56.090Z,8.22
2022-12-29T15:42:36.391Z,8.19
2022-12-29T15:45:13.374Z,8.15
2022-12-29T15:47:42.411Z,8.13
2022-12-29T15:50:27.226Z,8.06
2022-12-29T15:52:53.791Z,7.99
2022-12-29T15:55:42.579Z,7.94
2022-12-29T15:58:21.985Z,7.90
2022-12-29T16:00:51.356Z,7.83
2022-12-29T16:03:18.466Z,7.76
2022-12-29T16:05:53.102Z,7.70
2022-12-29T16:08:32.234Z,7.66
2022-12-29T16:10:59.549Z,7.58
2022-12-29T16:13:34.191Z,7.48
2022-12-29T16:16:13.110Z,7.43
2022-12-29T16:18:40.382Z,7.41
2022-12-29T16:21:17.897Z,7.39
2022-12-29T16:23:49.945Z,7.36
2022-12-29T16:26:19.402Z,7.31
2022-12-29T16:28:52.439Z,7.31
2022-12-29T16:31:23.946Z,7.27
2022-12-29T16:33:53.785Z,7.32
2022-12-29T16:36:35.159Z,7.32
2022-12-29T16:39:23.160Z,7.37
2022-12-29T16:41:51.298Z,7.37
2022-12-29T16:44:22.997Z,7.38
2022-12-29T16:47:02.790Z,7.38
2022-12-29T16:49:31.316Z,7.39
2022-12-29T16:51:58.236Z,7.36
2022-12-29T16:54:31.495Z,7.33
2022-12-29T16:56:58.185Z,7.34
2022-12-29T16:59:37.031Z,7.40
2022-12-29T17:02:14.118Z,7.40
2022-12-29T17:04:40.783Z,7.38
2022-12-29T17:07:18.849Z,7.44
2022-12-29T17:09:45.489Z,7.45
2022-12-29T17:12:18.258Z,7.46
2022-12-29T17:15:21.222Z,7.54
2022-12-29T17:17:50.178Z,7.57
2022-12-29T17:20:18.230Z,7.56
2022-12-29T17:22:45.534Z,7.57
2022-12-29T17:25:18.637Z,7.54
2022-12-29T17:27:59.054Z,7.52
2022-12-29T17:30:33.234Z,7.53
2022-12-29T17:33:13.325Z,7.49
2022-12-29T17:35:40.069Z,7.49
2022-12-29T17:38:35.918Z,7.49
2022-12-29T17:41:02.496Z,7.49
2022-12-29T17:43:36.347Z,7.52
2022-12-29T17:46:07.112Z,7.49
2022-12-29T17:48:33.759Z,7.47
2022-12-29T17:51:00.372Z,7.44
2022-12-29T17:53:29.698Z,7.47
2022-12-29T17:55:56.634Z,7.43
2022-12-29T17:58:24.542Z,7.42
2022-12-29T18:00:54.089Z,7.40
2022-12-29T18:03:28.360Z,7.38
2022-12-29T18:05:55.891Z,7.39
2022-12-29T18:08:22.514Z,7.43
2022-12-29T18:10:51.582Z,7.40
2022-12-29T18:13:24.316Z,7.41
2022-12-29T18:15:52.695Z,7.48
2022-12-29T18:18:21.573Z,7.48
2022-12-29T18:20:49.530Z,7.49
2022-12-29T18:23:24.755Z,7.49
2022-12-29T18:26:03.825Z,7.48
2022-12-29T18:28:30.566Z,7.45
2022-12-29T18:30:59.729Z,7.42
2022-12-29T18:33:27.224Z,7.36
2022-12-29T18:36:02.417Z,7.28
2022-12-29T18:38:29.879Z,7.26
2022-12-29T18:40:57.778Z,7.19
2022-12-29T18:43:25.037Z,7.17
2022-12-29T18:45:51.897Z,7.10
2022-12-29T18:48:19.886Z,7.03
2022-12-29T18:50:49.133Z,6.96
2022-12-29T18:53:17.432Z,6.94
2022-12-29T18:55:45.308Z,6.97
2022-12-29T18:58:12.334Z,6.95
2022-12-29T19:00:39.734Z,6.91
2022-12-29T19:03:06.563Z,6.89
2022-12-29T19:05:38.776Z,6.86
2022-12-29T19:08:06.266Z,6.83
2022-12-29T19:10:33.404Z,6.84
2022-12-29T19:13:00.651Z,6.79
2022-12-29T19:15:30.262Z,6.82
2022-12-29T19:18:32.843Z,6.88
2022-12-29T19:20:47.234Z,6.89
2022-12-29T19:23:16.935Z,6.88
2022-12-29T19:25:44.607Z,6.89
2022-12-29T19:28:18.916Z,6.97
2022-12-29T19:30:51.967Z,6.96
2022-12-29T19:33:20.887Z,6.93
2022-12-29T19:35:47.678Z,6.92
2022-12-29T19:38:14.731Z,6.92
2022-12-29T19:40:43.782Z,6.94
2022-12-29T19:43:12.158Z,6.92
2022-12-29T19:45:42.777Z,6.97
2022-12-29T19:48:14.129Z,7.02
2022-12-29T19:50:40.773Z,7.10
2022-12-29T19:53:07.369Z,7.11
2022-12-29T19:55:37.126Z,7.16
2022-12-29T19:58:04.021Z,7.12
2022-12-29T20:00:30.700Z,7.07
2022-12-29T20:02:57.437Z,7.06
2022-12-29T20:05:24.108Z,7.04
2022-12-29T20:07:50.636Z,7.04
2022-12-29T20:10:17.261Z,7.08
2022-12-29T20:12:43.836Z,7.13
2022-12-29T20:15:12.692Z,7.14
2022-12-29T20:20:27.315Z,7.19
2022-12-29T20:22:53.949Z,7.22
2022-12-29T20:28:06.988Z,7.38
2022-12-29T20:30:33.559Z,7.35
2022-12-29T20:33:06.115Z,7.28
2022-12-29T20:35:34.788Z,7.32
2022-12-29T20:38:01.327Z,7.25
2022-12-29T20:40:27.928Z,7.25
2022-12-29T20:42:54.476Z,7.20
2022-12-29T20:45:20.984Z,7.25
2022-12-29T20:47:47.529Z,7.23
2022-12-29T20:50:15.225Z,7.24
2022-12-29T20:52:41.959Z,7.28
2022-12-29T20:55:08.819Z,7.31
2022-12-29T20:58:05.628Z,7.34
2022-12-29T21:00:22.795Z,7.25
2022-12-29T21:02:49.817Z,7.18
2022-12-29T21:05:27.547Z,7.07
2022-12-29T21:07:55.496Z,7.11
2022-12-29T21:10:22.558Z,7.08
2022-12-29T21:12:49.203Z,7.15
2022-12-29T21:15:17.041Z,7.06
2022-12-29T21:17:44.539Z,7.02
2022-12-29T21:20:19.963Z,7.00
2022-12-29T21:22:47.706Z,6.96
2022-12-29T21:25:14.389Z,6.98
2022-12-29T21:27:46.959Z,6.93
2022-12-29T21:30:13.871Z,6.93
2022-12-29T21:32:41.514Z,6.90
2022-12-29T21:35:09.599Z,6.85
2022-12-29T21:37:36.810Z,6.84
2022-12-29T21:40:04.754Z,6.89
2022-12-29T21:42:31.705Z,6.83
2022-12-29T21:45:24.307Z,6.76
2022-12-29T21:48:16.153Z,6.70
2022-12-29T21:51:03.945Z,6.67
2022-12-29T21:53:38.070Z,6.64
2022-12-29T21:56:09.293Z,6.59
2022-12-29T21:58:57.654Z,6.55
2022-12-29T22:01:44.442Z,6.51
2022-12-29T22:04:34.956Z,6.47
2022-12-29T22:07:21.509Z,6.35
2022-12-29T22:10:07.012Z,6.23
2022-12-29T22:12:52.563Z,6.14
2022-12-29T22:15:19.248Z,6.11
2022-12-29T22:17:51.122Z,6.08
2022-12-29T22:20:19.926Z,6.02
2022-12-29T22:22:47.097Z,5.97
2022-12-29T22:25:14.517Z,5.96
2022-12-29T22:27:41.535Z,5.93
2022-12-29T22:30:09.034Z,5.93
2022-12-29T22:32:35.985Z,5.94
2022-12-29T22:35:07.824Z,5.92
2022-12-29T22:37:35.411Z,5.88
2022-12-29T22:40:02.170Z,5.84
2022-12-29T22:42:28.704Z,5.84
2022-12-29T22:44:55.260Z,5.82
2022-12-29T22:47:22.048Z,5.83
2022-12-29T22:49:48.599Z,5.86
2022-12-29T22:52:15.084Z,5.91
2022-12-29T22:54:41.573Z,5.95
2022-12-29T22:57:08.079Z,5.94
2022-12-29T22:59:34.802Z,5.91
2022-12-29T23:02:01.608Z,5.94
2022-12-29T23:07:15.067Z,5.98
2022-12-29T23:09:41.535Z,5.99
2022-12-29T23:12:08.067Z,6.01
2022-12-29T23:14:34.640Z,6.04
2022-12-29T23:17:01.144Z,6.06
2022-12-29T23:19:27.651Z,6.11
2022-12-29T23:21:54.192Z,6.12
2022-12-29T23:24:20.707Z,6.12
2022-12-29T23:26:48.166Z,6.09
2022-12-29T23:29:16.944Z,6.10
2022-12-29T23:31:44.113Z,6.10
2022-12-29T23:34:13.075Z,6.12
2022-12-29T23:36:40.576Z,6.12
2022-12-29T23:39:08.944Z,6.14
2022-12-29T23:41:35.572Z,6.14
2022-12-29T23:44:02.168Z,6.13
2022-12-29T23:46:29.786Z,6.11
2022-12-29T23:48:56.764Z,6.10
2022-12-29T23:51:23.302Z,6.09
2022-12-29T23:53:49.827Z,6.09
2022-12-29T23:56:19.518Z,6.10
2022-12-29T23:58:46.239Z,6.13
